ADDS METAR Data INFO
IDs: Format: Raw Decoded Include TAF

Data at: 0753 UTC 24 May 2018

KDWH 240740Z AUTO 00000KT 10SM BKN019 22/22 A3004 RMK AO2 T02220217
KDWH 240653Z AUTO 00000KT 10SM CLR 22/21 A3005 RMK AO2 SLP172 T02170211
KDWH 240553Z AUTO 08003KT 10SM CLR 23/22 A3006 RMK AO2 SLP177 T02280217 10278 20217 403000206 51012
KDWH 240453Z AUTO 00000KT 10SM CLR 22/21 A3005 RMK AO2 SLP174 T02220211
KDWH 240353Z AUTO 09003KT 10SM CLR 23/21 A3004 RMK AO2 SLP169 T02280211
KDWH 240253Z AUTO 11003KT 10SM CLR 24/22 A3002 RMK AO2 SLP164 T02440217 53014
KDWH 240153Z 09005KT 10SM CLR 26/22 A3001 RMK AO2 SLP160 T02560217
KDWH 240053Z 12005KT 10SM CLR 26/22 A2999 RMK AO2 SLP154 T02610222
KDWH 232353Z 12005KT 10SM CLR 27/22 A2998 RMK AO2 SLP150 60002 T02720217 10289 20228 56012
KDWH 232253Z 00000KT 10SM CLR 28/22 A2999 RMK AO2 SLP153 T02780217
KDWH 232153Z 09005KT 10SM FEW030 28/22 A3000 RMK AO2 SLP158 T02830217
KDWH 232053Z 12007KT 10SM SCT028 28/22 A3002 RMK AO2 SLP162 60002 T02830222 58012
KDWH 231953Z COR 13007KT 10SM BKN045 28/23 A3004 RMK AO2 SLP170 T02780228
KDWH 231853Z 11006KT 10SM FEW034 FEW065 SCT110 24/22 A3006 RMK AO2 LTG DSNT E RAE53 SLP177 P0002 T02440222
KDWH 231753Z 00000KT 10SM -RA FEW060 SCT075 BKN120 22/21 A3005 RMK AO2 LTG DSNT S AND SW RAE45B50 TSE17 SLP175 P0017 60019 T02220211 10300 20211 58001
KDWH 231745Z 00000KT 10SM BKN120 22/21 A3005 RMK AO2 LTG DSNT N AND SW RAE45 TSE17 P0017 T02220206
KDWH 231717Z 00000KT 4SM VCTS RA BR FEW039 BKN100 OVC110 22/21 A3006 RMK AO2 LTG DSNT SW AND NW TSE17 P0017 T02170206
KDWH 231703Z 27005KT 1SM +TSRA BR FEW030 BKN049 OVC075 21/20 A3007 RMK AO2 LTG DSNT SW-NW P0013 T02110200
KDWH 231655Z 24006KT 2 1/2SM +TSRA FEW020 SCT030 OVC048 23/20 A3008 RMK AO2 LTG DSNT SW AND W P0007 T02280200
KDWH 231653Z 21007G16KT 6SM +TSRA BKN025 BKN030 23/19 A3008 RMK AO2 LTG DSNT SW AND W RAB52 TSB16E17B49 SLP184 P0002 T02330194
KDWH 231604Z 06004KT 10SM VCTS BKN025 BKN030 30/23 A3005 RMK AO2 LTG DSNT E-SW T03000228
KDWH 231553Z 04003KT 10SM BKN017 BKN043 BKN050 29/23 A3005 RMK AO2 LTG DSNT SE-W SLP173 T02890228
KDWH 231453Z VRB03KT 10SM BKN017 BKN043 BKN050 28/23 A3006 RMK AO2 LTG DSNT SE SLP175 T02830233 51019
KDWH 231429Z 00000KT 10SM BKN014 28/23 A3005 RMK AO2 LTG DSNT SE T02780233
KDWH 231353Z 07003KT 10SM CLR 27/23 A3004 RMK AO2 SLP171 T02670233
KDWH 231253Z 00000KT 10SM CLR 24/23 A3003 RMK AO2 SLP165 T02440233
KDWH 231157Z 00000KT 10SM CLR 21/21 A3000 RMK AO2 T02110206
KDWH 231153Z 00000KT 3/4SM BR CLR 21/21 A3000 RMK AO2 SLP157 70002 T02110206 10222 20206 53009
KDWH 231143Z AUTO 00000KT 1/2SM FG CLR 21/21 A3000 RMK AO2 T02060206
KDWH 231132Z AUTO 00000KT 1SM BR CLR 21/21 A2999 RMK AO2 T02110211
KDWH 231125Z AUTO 00000KT 1/4SM FG CLR 21/21 A2999 RMK AO2 T02110206
KDWH 231115Z AUTO 00000KT 1 3/4SM BR CLR 21/21 A2999 RMK AO2 T02110206
KDWH 231102Z AUTO 00000KT 3SM BR CLR 21/21 A2998 RMK AO2 T02110206
KDWH 231053Z AUTO 00000KT 1 1/2SM BR CLR 21/21 A2998 RMK AO2 SLP150 T02060206
KDWH 231049Z AUTO 00000KT 1 3/4SM BR CLR 21/21 A2998 RMK AO2
KDWH 231035Z AUTO 00000KT 5SM BR CLR 21/21 A2998 RMK AO2 T02110206
KDWH 231028Z AUTO 00000KT 2 1/2SM BR CLR 21/21 A2998 RMK AO2 VIS 1 1/2V5 T02110206
KDWH 231000Z AUTO 00000KT 7SM CLR 22/21 A2997 RMK AO2 T02170211
KDWH 230953Z AUTO 00000KT 2 1/2SM BR CLR 21/21 A2997 RMK AO2 SLP147 T02110206
KDWH 230919Z AUTO 00000KT 1 1/4SM BR CLR 21/21 A2997 RMK AO2 T02110211
KDWH 230853Z AUTO 00000KT 5SM BR CLR 22/21 A2997 RMK AO2 SLP147 T02170211 58006
KDWH 230837Z AUTO 00000KT 3SM BR CLR 21/21 A2998 RMK AO2 T02110211
KDWH 230826Z AUTO 00000KT 1 3/4SM BR CLR 21/21 A2998 RMK AO2 T02110211
KDWH 230753Z AUTO 00000KT 5SM BR CLR 22/22 A2998 RMK AO2 SLP151 T02170217
KDWH 230653Z AUTO 00000KT 4SM BR CLR 22/22 A2999 RMK AO2 SLP152 T02170217
KDWH 230553Z AUTO 00000KT 7SM CLR 22/22 A2999 RMK AO2 SLP153 T02220217 10278 20217 403220206 50006
KDWH 230453Z AUTO 00000KT 7SM CLR 22/22 A3000 RMK AO2 SLP157 T02220217
KDWH 230353Z AUTO 00000KT 10SM CLR 23/22 A3000 RMK AO2 SLP155 T02280217
KDWH 230253Z AUTO 00000KT 10SM CLR 23/22 A2997 RMK AO2 SLP147 T02280222 53014
KDWH 230153Z 00000KT 10SM CLR 24/22 A2996 RMK AO2 SLP142 T02390222
KDWH 230053Z 00000KT 10SM CLR 26/22 A2995 RMK AO2 SLP138 T02560217
KDWH 222353Z VRB03KT 10SM BKN049 27/23 A2993 RMK AO2 SLP133 60002 T02720228 10322 20233 55005
KDWH 222253Z 06005KT 10SM BKN075 26/23 A2993 RMK AO2 LTG DSNT N-SE SLP133 T02610228
KDWH 222216Z VRB03KT 10SM BKN075 26/22 A2995 RMK AO2 LTG DSNT N-E T02560222
KDWH 222153Z 00000KT 10SM VCTS FEW075 BKN090 25/21 A2994 RMK AO2 LTG DSNT NW-E RAB2055E34 TSE37 SLP136 P0002 T02500211
KDWH 222143Z 00000KT 10SM VCTS FEW075 SCT090 SCT110 24/21 A2994 RMK AO2 LTG DSNT NW-E RAB2055E34 TSE37 P0002 T02390211
KDWH 222053Z 17010KT 10SM TS SCT050 BKN065 27/21 A2995 RMK AO2 LTG DSNT E-SW TSB29 SLP139 T02670211 56017
KDWH 222032Z COR VRB03KT 10SM TS BKN45 31/19 A2995 RMK AO2 LTG DSNT S AND SW TSB29 T03060189